createdAt,value
2018-02-21T00:00:54.655Z,37.37
2018-02-21T00:03:23.103Z,38.43
2018-02-21T00:05:50.708Z,36.37
2018-02-21T00:08:18.324Z,35.53
2018-02-21T00:10:45.932Z,36.63
2018-02-21T00:13:14.322Z,35.70
2018-02-21T00:15:42.694Z,37.30
2018-02-21T00:18:11.052Z,35.80
2018-02-21T00:20:38.617Z,35.90
2018-02-21T00:23:07.051Z,35.80
2018-02-21T00:25:34.612Z,36.17
2018-02-21T00:28:02.210Z,37.60
2018-02-21T00:30:29.858Z,37.07
2018-02-21T00:32:57.449Z,37.17
2018-02-21T00:35:25.075Z,37.30
2018-02-21T00:37:52.677Z,36.63
2018-02-21T00:40:20.246Z,34.93
2018-02-21T00:42:47.831Z,37.83
2018-02-21T00:45:15.421Z,38.00
2018-02-21T00:47:43.778Z,36.63
2018-02-21T00:50:11.367Z,36.33
2018-02-21T00:52:39.716Z,36.67
2018-02-21T00:55:07.319Z,37.90
2018-02-21T00:57:34.946Z,38.63
2018-02-21T01:00:02.574Z,38.73
2018-02-21T01:02:30.198Z,37.37
2018-02-21T01:04:57.814Z,36.67
2018-02-21T01:07:25.452Z,37.47
2018-02-21T01:09:53.065Z,37.40
2018-02-21T01:12:20.670Z,35.40
2018-02-21T01:14:49.048Z,34.87
2018-02-21T01:17:17.423Z,37.43
2018-02-21T01:19:45.015Z,36.83
2018-02-21T01:22:12.589Z,39.37
2018-02-21T01:24:40.217Z,36.73
2018-02-21T01:27:07.809Z,37.87
2018-02-21T01:29:36.171Z,38.13
2018-02-21T01:32:04.519Z,36.13
2018-02-21T01:34:32.101Z,36.63
2018-02-21T01:36:59.749Z,36.00
2018-02-21T01:39:27.348Z,37.43
2018-02-21T01:41:54.940Z,37.80
2018-02-21T01:44:22.557Z,38.80
2018-02-21T01:46:50.189Z,38.80
2018-02-21T01:49:17.820Z,36.87
2018-02-21T01:51:46.173Z,38.63
2018-02-21T01:54:13.802Z,37.70
2018-02-21T01:56:41.450Z,35.93
2018-02-21T01:59:09.036Z,38.47
2018-02-21T02:01:36.668Z,37.37
2018-02-21T02:04:07.333Z,39.93
2018-02-21T02:06:35.698Z,37.13
2018-02-21T02:09:04.054Z,37.40
2018-02-21T02:11:34.020Z,35.73
2018-02-21T02:14:01.984Z,38.07
2018-02-21T02:16:29.637Z,36.90
2018-02-21T02:19:04.933Z,38.73
2018-02-21T02:21:40.165Z,37.60
2018-02-21T02:24:08.497Z,36.07
2018-02-21T02:26:38.325Z,37.07
2018-02-21T02:29:07.764Z,38.03
2018-02-21T02:31:36.487Z,37.10
2018-02-21T02:34:09.969Z,39.73
2018-02-21T02:36:37.724Z,37.90
2018-02-21T02:39:18.299Z,37.30
2018-02-21T02:41:46.228Z,37.77
2018-02-21T02:44:14.062Z,40.03
2018-02-21T02:46:42.126Z,38.03
2018-02-21T02:49:09.717Z,37.57
2018-02-21T02:51:38.090Z,39.57
2018-02-21T02:54:06.479Z,39.20
2018-02-21T02:56:34.837Z,40.73
2018-02-21T02:59:02.457Z,38.60
2018-02-21T03:01:30.482Z,40.50
2018-02-21T03:03:58.089Z,40.03
2018-02-21T03:06:26.468Z,38.07
2018-02-21T03:08:54.089Z,39.43
2018-02-21T03:11:21.661Z,38.83
2018-02-21T03:13:49.247Z,38.70
2018-02-21T03:16:16.859Z,37.43
2018-02-21T03:18:44.501Z,39.10
2018-02-21T03:21:12.104Z,37.30
2018-02-21T03:23:39.737Z,39.30
2018-02-21T03:26:07.334Z,39.83
2018-02-21T03:28:34.974Z,38.60
2018-02-21T03:31:02.577Z,41.77
2018-02-21T03:33:30.189Z,41.10
2018-02-21T03:35:57.839Z,40.53
2018-02-21T03:38:26.254Z,39.77
2018-02-21T03:40:53.882Z,41.60
2018-02-21T03:43:21.479Z,38.47
2018-02-21T03:45:49.109Z,39.37
2018-02-21T03:48:16.707Z,40.97
2018-02-21T03:50:44.313Z,38.60
2018-02-21T03:53:12.007Z,39.57
2018-02-21T03:55:39.644Z,39.07
2018-02-21T03:58:07.278Z,39.33
2018-02-21T04:00:34.880Z,38.17
2018-02-21T04:03:02.476Z,38.43
2018-02-21T04:05:30.071Z,38.57
2018-02-21T04:07:57.674Z,39.93
2018-02-21T04:10:25.360Z,40.83
2018-02-21T04:12:52.998Z,41.23
2018-02-21T04:15:20.624Z,41.17
2018-02-21T04:17:48.993Z,40.67
2018-02-21T04:20:18.631Z,41.50
2018-02-21T04:22:46.290Z,41.33
2018-02-21T04:25:14.639Z,40.87
2018-02-21T04:27:42.253Z,40.80
2018-02-21T04:30:09.832Z,41.23
2018-02-21T04:32:37.443Z,41.80
2018-02-21T04:35:05.087Z,40.87
2018-02-21T04:37:32.737Z,42.37
2018-02-21T04:40:00.333Z,41.33
2018-02-21T04:42:27.943Z,40.77
2018-02-21T04:44:55.543Z,42.40
2018-02-21T04:47:23.182Z,40.20
2018-02-21T04:49:50.838Z,41.93
2018-02-21T04:52:18.464Z,39.93
2018-02-21T04:55:05.652Z,42.70
2018-02-21T04:57:41.264Z,41.27
2018-02-21T05:00:10.873Z,39.77
2018-02-21T05:02:38.484Z,41.00
2018-02-21T05:05:06.107Z,41.03
2018-02-21T05:07:33.773Z,44.37
2018-02-21T05:10:01.393Z,44.73
2018-02-21T05:12:29.013Z,42.97
2018-02-21T05:14:56.639Z,42.53
2018-02-21T05:17:24.245Z,40.97
2018-02-21T05:19:51.859Z,41.83
2018-02-21T05:22:19.441Z,43.03
2018-02-21T05:24:47.819Z,43.87
2018-02-21T05:27:15.410Z,45.53
2018-02-21T05:29:43.823Z,41.97
2018-02-21T05:32:11.428Z,42.67
2018-02-21T05:34:39.814Z,42.70
2018-02-21T05:37:08.216Z,43.60
2018-02-21T05:39:36.588Z,44.43
2018-02-21T05:42:04.999Z,46.97
2018-02-21T05:44:32.644Z,44.00
2018-02-21T05:47:00.249Z,44.97
2018-02-21T05:49:28.767Z,42.77
2018-02-21T05:51:56.404Z,43.73
2018-02-21T05:54:24.017Z,44.10
2018-02-21T05:56:51.621Z,44.37
2018-02-21T05:59:19.264Z,45.43
2018-02-21T06:01:46.906Z,41.37
2018-02-21T06:04:14.589Z,44.77
2018-02-21T06:06:42.979Z,43.47
2018-02-21T06:09:11.357Z,43.27
2018-02-21T06:11:39.718Z,44.77
2018-02-21T06:14:07.334Z,43.23
2018-02-21T06:16:34.937Z,42.47
2018-02-21T06:19:02.560Z,44.27
2018-02-21T06:21:30.178Z,43.73
2018-02-21T06:23:57.780Z,43.27
2018-02-21T06:26:26.199Z,43.50
2018-02-21T06:28:53.795Z,45.10
2018-02-21T06:31:21.405Z,43.30
2018-02-21T06:33:49.019Z,44.80
2018-02-21T06:36:16.639Z,46.73
2018-02-21T06:38:44.230Z,44.60
2018-02-21T06:41:11.845Z,47.63
2018-02-21T06:43:40.259Z,44.57
2018-02-21T06:46:07.843Z,43.63
2018-02-21T06:48:35.452Z,43.67
2018-02-21T06:51:03.122Z,45.33
2018-02-21T06:53:31.523Z,41.00
2018-02-21T06:55:59.903Z,45.43
2018-02-21T06:58:28.284Z,43.27
2018-02-21T07:00:56.652Z,44.63
2018-02-21T07:03:24.948Z,45.63
2018-02-21T07:05:53.969Z,45.27
2018-02-21T07:08:21.589Z,46.13
2018-02-21T07:10:49.193Z,44.23
2018-02-21T07:13:16.821Z,46.33
2018-02-21T07:15:44.470Z,42.37
2018-02-21T07:18:12.103Z,44.63
2018-02-21T07:20:39.800Z,47.83
2018-02-21T07:23:07.425Z,45.03
2018-02-21T07:25:35.013Z,45.33
2018-02-21T07:28:02.629Z,48.03
2018-02-21T07:30:31.012Z,43.90
2018-02-21T07:32:59.425Z,44.10
2018-02-21T07:35:27.090Z,44.10
2018-02-21T07:37:54.721Z,45.63
2018-02-21T07:40:22.306Z,46.47
2018-02-21T07:42:50.678Z,44.33
2018-02-21T07:45:18.270Z,43.67
2018-02-21T07:47:45.917Z,43.50
2018-02-21T07:50:13.548Z,42.90
2018-02-21T07:52:41.140Z,44.07
2018-02-21T07:55:09.543Z,42.10
2018-02-21T07:57:37.181Z,43.73
2018-02-21T08:00:04.837Z,42.30
2018-02-21T08:02:32.482Z,44.90
2018-02-21T08:05:00.158Z,42.67
2018-02-21T08:07:27.735Z,41.33
2018-02-21T08:09:55.323Z,41.07
2018-02-21T08:12:23.684Z,43.50
2018-02-21T08:14:51.328Z,43.80
2018-02-21T08:17:18.932Z,42.83
2018-02-21T08:19:46.559Z,41.50
2018-02-21T08:22:14.900Z,43.77
2018-02-21T08:24:42.501Z,41.80
2018-02-21T08:27:10.113Z,44.27
2018-02-21T08:29:38.492Z,42.10
2018-02-21T08:32:06.082Z,43.10
2018-02-21T08:34:33.708Z,40.80
2018-02-21T08:37:01.305Z,40.67
2018-02-21T08:39:29.701Z,41.37
2018-02-21T08:41:57.298Z,40.03
2018-02-21T08:44:25.567Z,41.13
2018-02-21T08:46:53.235Z,40.57
2018-02-21T08:49:20.815Z,40.97
2018-02-21T08:51:48.434Z,40.47
2018-02-21T08:54:16.113Z,41.07
2018-02-21T08:56:43.746Z,41.87
2018-02-21T08:59:11.377Z,40.77
2018-02-21T09:01:38.961Z,40.27
2018-02-21T09:04:06.558Z,40.37
2018-02-21T09:06:35.002Z,39.90
2018-02-21T09:09:02.570Z,39.33
2018-02-21T09:11:30.196Z,39.30
2018-02-21T09:13:58.321Z,40.10
2018-02-21T09:16:26.782Z,37.67
2018-02-21T09:18:54.444Z,37.73
2018-02-21T09:21:22.127Z,39.43
2018-02-21T09:23:50.457Z,35.93
2018-02-21T09:26:19.413Z,37.27
2018-02-21T09:28:47.028Z,35.70
2018-02-21T09:31:14.653Z,38.83
2018-02-21T09:33:42.264Z,38.33
2018-02-21T09:36:09.943Z,35.87
2018-02-21T09:38:37.551Z,34.97
2018-02-21T09:41:05.242Z,35.30
2018-02-21T09:43:33.596Z,35.37
2018-02-21T09:46:01.204Z,34.57
2018-02-21T09:48:28.810Z,36.37
2018-02-21T09:50:56.412Z,35.20
2018-02-21T09:53:24.824Z,34.80
2018-02-21T09:55:52.451Z,35.27
2018-02-21T09:58:20.031Z,37.83
2018-02-21T10:00:48.432Z,35.07
2018-02-21T10:03:16.790Z,35.07
2018-02-21T10:05:44.414Z,34.87
2018-02-21T10:08:12.037Z,34.43
2018-02-21T10:10:41.265Z,32.77
2018-02-21T10:13:08.855Z,33.43
2018-02-21T10:15:36.436Z,32.17
2018-02-21T10:18:04.044Z,31.80
2018-02-21T10:20:31.643Z,31.70
2018-02-21T10:22:59.232Z,31.93
2018-02-21T10:25:26.805Z,33.27
2018-02-21T10:27:54.460Z,32.07
2018-02-21T10:30:22.064Z,31.10
2018-02-21T10:32:50.398Z,35.77
2018-02-21T10:35:18.012Z,31.80
2018-02-21T10:37:47.002Z,31.50
2018-02-21T10:40:14.573Z,31.00
2018-02-21T10:42:42.189Z,31.47
2018-02-21T10:45:09.774Z,32.87
2018-02-21T10:47:37.410Z,30.37
2018-02-21T10:50:05.013Z,31.20
2018-02-21T10:52:32.585Z,32.57
2018-02-21T10:55:00.162Z,31.17
2018-02-21T10:57:28.514Z,29.67
2018-02-21T10:59:56.117Z,32.10
2018-02-21T11:02:24.496Z,32.10
2018-02-21T11:04:52.106Z,31.17
2018-02-21T11:07:19.810Z,30.37
2018-02-21T11:09:48.598Z,31.03
2018-02-21T11:12:17.080Z,31.60
2018-02-21T11:14:44.676Z,33.80
2018-02-21T11:17:13.137Z,31.43
2018-02-21T11:19:40.768Z,30.77
2018-02-21T11:22:08.326Z,31.83
2018-02-21T11:24:35.931Z,32.57
2018-02-21T11:27:03.517Z,33.47
2018-02-21T11:29:31.125Z,33.70
2018-02-21T11:31:58.740Z,31.90
2018-02-21T11:34:27.651Z,31.97
2018-02-21T11:36:55.537Z,30.03
2018-02-21T11:39:23.163Z,31.93
2018-02-21T11:41:50.801Z,33.83
2018-02-21T11:44:18.395Z,30.23
2018-02-21T11:46:45.997Z,30.57
2018-02-21T11:49:13.584Z,31.40
2018-02-21T11:51:41.186Z,28.57
2018-02-21T11:54:08.901Z,30.00
2018-02-21T11:56:38.106Z,27.83
2018-02-21T11:59:05.757Z,30.63
2018-02-21T12:01:33.348Z,29.60
2018-02-21T12:04:00.936Z,30.00
2018-02-21T12:06:28.536Z,28.47
2018-02-21T12:08:56.884Z,25.83
2018-02-21T12:11:24.481Z,28.23
2018-02-21T12:13:52.133Z,28.27
2018-02-21T12:16:19.729Z,29.33
2018-02-21T12:18:47.299Z,29.40
2018-02-21T12:21:14.893Z,29.97
2018-02-21T12:23:42.465Z,30.53
2018-02-21T12:26:10.115Z,29.40
2018-02-21T12:28:38.605Z,31.07
2018-02-21T12:31:06.213Z,30.27
2018-02-21T12:33:33.814Z,27.90
2018-02-21T12:36:01.433Z,30.47
2018-02-21T12:38:29.030Z,29.43
2018-02-21T12:41:02.332Z,29.03
2018-02-21T12:43:29.897Z,30.30
2018-02-21T12:45:57.476Z,29.60
2018-02-21T12:48:25.118Z,28.70
2018-02-21T12:50:53.485Z,30.83
2018-02-21T12:53:21.070Z,32.43
2018-02-21T12:55:49.466Z,31.80
2018-02-21T12:58:17.084Z,32.60
2018-02-21T13:00:44.637Z,32.03
2018-02-21T13:03:12.807Z,31.90
2018-02-21T13:05:40.377Z,31.50
2018-02-21T13:08:07.967Z,30.43
2018-02-21T13:10:35.585Z,29.17
2018-02-21T13:13:03.194Z,31.00
2018-02-21T13:15:30.787Z,30.27
2018-02-21T13:17:59.132Z,30.83
2018-02-21T13:20:26.689Z,32.13
2018-02-21T13:22:54.259Z,30.00
2018-02-21T13:25:21.858Z,28.47
2018-02-21T13:27:50.244Z,27.93
2018-02-21T13:30:18.600Z,28.67
2018-02-21T13:32:46.204Z,27.93
2018-02-21T13:35:13.844Z,27.93
2018-02-21T13:37:41.423Z,30.87
2018-02-21T13:40:09.778Z,27.60
2018-02-21T13:42:38.353Z,28.33
2018-02-21T13:45:05.947Z,27.03
2018-02-21T13:47:34.306Z,28.37
2018-02-21T13:50:01.883Z,27.63
2018-02-21T13:52:29.475Z,27.00
2018-02-21T13:54:57.829Z,27.70
2018-02-21T13:57:25.414Z,27.27
2018-02-21T13:59:53.023Z,28.20
2018-02-21T14:02:20.628Z,28.27
2018-02-21T14:04:48.210Z,28.40
2018-02-21T14:07:16.565Z,27.00
2018-02-21T14:09:44.137Z,28.60
2018-02-21T14:12:11.739Z,27.77
2018-02-21T14:14:39.366Z,27.87
2018-02-21T14:17:06.950Z,27.07
2018-02-21T14:19:35.308Z,27.77
2018-02-21T14:22:02.895Z,28.10
2018-02-21T14:24:31.274Z,25.83
2018-02-21T14:26:58.855Z,27.00
2018-02-21T14:29:27.217Z,27.10
2018-02-21T14:31:54.793Z,27.27
2018-02-21T14:34:23.130Z,28.43
2018-02-21T14:36:50.721Z,26.77
2018-02-21T14:39:18.327Z,25.63
2018-02-21T14:41:45.933Z,26.00
2018-02-21T14:44:13.507Z,27.07
2018-02-21T14:46:41.096Z,27.10
2018-02-21T14:49:09.464Z,27.03
2018-02-21T14:51:37.066Z,27.80
2018-02-21T14:54:04.653Z,28.37
2018-02-21T14:56:32.256Z,29.23
2018-02-21T14:59:00.742Z,27.90
2018-02-21T15:01:29.238Z,28.20
2018-02-21T15:03:57.621Z,27.63
2018-02-21T15:06:25.207Z,29.30
2018-02-21T15:08:52.784Z,28.67
2018-02-21T15:11:20.362Z,29.00
2018-02-21T15:13:47.952Z,30.60
2018-02-21T15:16:21.105Z,29.73
2018-02-21T15:18:48.835Z,28.73
2018-02-21T15:21:16.430Z,30.43
2018-02-21T15:23:44.051Z,30.53
2018-02-21T15:26:11.632Z,30.50
2018-02-21T15:28:39.250Z,29.30
2018-02-21T15:31:06.846Z,29.43
2018-02-21T15:33:34.405Z,29.00
2018-02-21T15:36:02.039Z,29.83
2018-02-21T15:38:29.656Z,28.17
2018-02-21T15:40:57.277Z,27.33
2018-02-21T15:43:24.847Z,27.93
2018-02-21T15:45:52.442Z,27.10
2018-02-21T15:48:20.050Z,27.27
2018-02-21T15:50:47.656Z,26.40
2018-02-21T15:53:15.241Z,28.00
2018-02-21T15:55:42.845Z,27.00
2018-02-21T15:58:10.479Z,26.70
2018-02-21T16:00:38.071Z,24.17
2018-02-21T16:03:06.474Z,25.57
2018-02-21T16:05:34.068Z,25.80
2018-02-21T16:08:01.717Z,24.47
2018-02-21T16:10:29.293Z,23.63
2018-02-21T16:12:56.896Z,25.87
2018-02-21T16:15:24.552Z,26.20
2018-02-21T16:17:52.143Z,24.27
2018-02-21T16:20:20.509Z,22.57
2018-02-21T16:22:48.868Z,23.77
2018-02-21T16:25:16.440Z,22.17
2018-02-21T16:27:44.039Z,21.90
2018-02-21T16:30:13.140Z,21.27
2018-02-21T16:32:41.557Z,22.17
2018-02-21T16:35:09.150Z,21.23
2018-02-21T16:37:36.746Z,20.10
2018-02-21T16:40:05.150Z,21.23
2018-02-21T16:42:32.780Z,19.33
2018-02-21T16:45:00.373Z,19.10
2018-02-21T16:47:28.734Z,19.53
2018-02-21T16:49:56.331Z,19.13
2018-02-21T16:52:23.935Z,20.03
2018-02-21T16:54:51.713Z,19.43
2018-02-21T16:57:19.279Z,18.83
2018-02-21T16:59:46.880Z,19.60
2018-02-21T17:02:15.221Z,20.07
2018-02-21T17:04:42.848Z,19.07
2018-02-21T17:07:10.479Z,20.23
2018-02-21T17:09:38.812Z,19.87
2018-02-21T17:12:06.428Z,19.47
2018-02-21T17:14:34.790Z,21.60
2018-02-21T17:17:02.374Z,19.97
2018-02-21T17:19:30.752Z,20.30
2018-02-21T17:21:58.418Z,20.70
2018-02-21T17:24:26.006Z,20.37
2018-02-21T17:26:54.356Z,21.00
2018-02-21T17:29:21.991Z,23.63
2018-02-21T17:31:49.614Z,21.93
2018-02-21T17:34:17.965Z,21.77
2018-02-21T17:36:45.575Z,22.27
2018-02-21T17:39:13.171Z,22.33
2018-02-21T17:41:40.764Z,22.23
2018-02-21T17:44:08.439Z,22.33
2018-02-21T17:46:36.031Z,25.33
2018-02-21T17:49:04.367Z,23.03
2018-02-21T17:51:32.032Z,22.60
2018-02-21T17:53:59.655Z,23.33
2018-02-21T17:56:28.191Z,25.83
2018-02-21T17:58:56.575Z,25.37
2018-02-21T18:01:24.164Z,26.00
2018-02-21T18:03:51.746Z,24.10
2018-02-21T18:06:20.095Z,25.17
2018-02-21T18:08:47.658Z,25.07
2018-02-21T18:11:15.271Z,25.53
2018-02-21T18:13:42.890Z,24.70
2018-02-21T18:16:10.474Z,26.10
2018-02-21T18:18:38.832Z,25.30
2018-02-21T18:21:06.492Z,25.63
2018-02-21T18:23:34.186Z,25.37
2018-02-21T18:26:01.780Z,25.07
2018-02-21T18:28:29.365Z,26.07
2018-02-21T18:30:57.014Z,26.23
2018-02-21T18:33:25.401Z,26.57
2018-02-21T18:35:53.032Z,29.47
2018-02-21T18:38:20.724Z,26.10
2018-02-21T18:40:49.043Z,26.00
2018-02-21T18:43:16.632Z,26.40
2018-02-21T18:45:44.214Z,25.83
2018-02-21T18:48:11.804Z,26.50
2018-02-21T18:50:39.382Z,41.67
2018-02-21T18:53:07.701Z,26.63
2018-02-21T18:55:35.279Z,25.47
2018-02-21T18:58:02.896Z,26.37
2018-02-21T19:00:30.486Z,28.10
2018-02-21T19:02:58.059Z,25.73
2018-02-21T19:05:25.653Z,25.40
2018-02-21T19:07:54.713Z,28.73
2018-02-21T19:10:22.325Z,27.20
2018-02-21T19:12:50.669Z,26.50
2018-02-21T19:15:18.244Z,27.10
2018-02-21T19:17:45.858Z,27.60
2018-02-21T19:20:13.442Z,27.33
2018-02-21T19:22:41.022Z,26.93
2018-02-21T19:25:08.604Z,27.23
2018-02-21T19:27:36.180Z,27.83
2018-02-21T19:30:04.507Z,26.03
2018-02-21T19:32:32.082Z,25.07
2018-02-21T19:34:59.649Z,27.27
2018-02-21T19:37:27.217Z,27.37
2018-02-21T19:39:54.827Z,27.07
2018-02-21T19:42:22.423Z,27.80
2018-02-21T19:44:49.981Z,27.53
2018-02-21T19:47:17.598Z,26.13
2018-02-21T19:49:45.196Z,26.63
2018-02-21T19:52:12.778Z,27.10
2018-02-21T19:54:42.091Z,26.30
2018-02-21T19:57:09.670Z,26.30
2018-02-21T19:59:37.242Z,26.50
2018-02-21T20:02:04.826Z,24.60
2018-02-21T20:04:32.434Z,27.03
2018-02-21T20:07:00.016Z,24.90
2018-02-21T20:09:27.604Z,26.00
2018-02-21T20:11:55.174Z,26.00
2018-02-21T20:14:23.704Z,25.13
2018-02-21T20:16:51.311Z,25.23
2018-02-21T20:19:18.881Z,25.97
2018-02-21T20:21:46.443Z,26.70
2018-02-21T20:24:14.037Z,26.43
2018-02-21T20:26:44.145Z,25.97
2018-02-21T20:29:11.743Z,25.47
2018-02-21T20:31:39.355Z,26.27
2018-02-21T20:34:06.970Z,24.40
2018-02-21T20:36:34.558Z,25.70
2018-02-21T20:39:02.965Z,26.20
2018-02-21T20:41:30.637Z,25.77
2018-02-21T20:43:58.224Z,27.50
2018-02-21T20:46:25.872Z,26.60
2018-02-21T20:48:53.525Z,26.43
2018-02-21T20:51:21.137Z,26.27
2018-02-21T20:53:48.738Z,26.47
2018-02-21T20:56:17.114Z,26.77
2018-02-21T20:58:44.776Z,25.93
2018-02-21T21:01:12.365Z,25.87
2018-02-21T21:03:39.950Z,25.60
2018-02-21T21:06:07.537Z,26.50
2018-02-21T21:08:35.111Z,26.20
2018-02-21T21:11:02.687Z,26.23
2018-02-21T21:13:31.131Z,27.63
2018-02-21T21:15:59.191Z,26.93
2018-02-21T21:18:26.796Z,27.87
2018-02-21T21:20:54.378Z,26.37
2018-02-21T21:23:21.964Z,27.70
2018-02-21T21:25:49.570Z,27.63
2018-02-21T21:28:17.165Z,27.30
2018-02-21T21:30:44.784Z,27.23
2018-02-21T21:33:12.400Z,28.77
2018-02-21T21:35:39.954Z,26.97
2018-02-21T21:38:07.544Z,27.47
2018-02-21T21:40:35.143Z,27.17
2018-02-21T21:43:02.708Z,27.83
2018-02-21T21:45:30.310Z,26.30
2018-02-21T21:47:57.907Z,26.93
2018-02-21T21:50:25.523Z,26.93
2018-02-21T21:52:53.086Z,27.87
2018-02-21T21:55:20.664Z,26.87
2018-02-21T21:57:48.248Z,27.83
2018-02-21T22:00:15.838Z,27.90
2018-02-21T22:02:43.440Z,28.53
2018-02-21T22:05:11.024Z,26.37
2018-02-21T22:07:38.618Z,26.33
2018-02-21T22:10:06.196Z,26.50
2018-02-21T22:12:34.536Z,27.13
2018-02-21T22:15:03.776Z,26.70
2018-02-21T22:17:31.344Z,27.10
2018-02-21T22:19:59.020Z,27.30
2018-02-21T22:22:27.398Z,27.57
2018-02-21T22:24:55.791Z,26.03
2018-02-21T22:27:24.126Z,25.77
2018-02-21T22:29:51.784Z,27.27
2018-02-21T22:32:19.349Z,26.07
2018-02-21T22:34:47.004Z,26.60
2018-02-21T22:37:14.593Z,26.20
2018-02-21T22:39:42.275Z,26.83
2018-02-21T22:42:09.878Z,26.90
2018-02-21T22:44:38.235Z,28.13
2018-02-21T22:47:05.846Z,27.03
2018-02-21T22:49:33.436Z,27.23
2018-02-21T22:52:01.045Z,26.57
2018-02-21T22:54:28.654Z,27.40
2018-02-21T22:56:56.272Z,26.97
2018-02-21T22:59:24.618Z,27.60
2018-02-21T23:01:52.200Z,26.90
2018-02-21T23:04:19.866Z,27.53
2018-02-21T23:06:47.488Z,26.80
2018-02-21T23:09:15.105Z,28.67
2018-02-21T23:11:42.698Z,27.87
2018-02-21T23:14:11.040Z,29.13
2018-02-21T23:16:38.628Z,26.00
2018-02-21T23:19:06.209Z,26.73
2018-02-21T23:21:34.568Z,26.53
2018-02-21T23:24:02.155Z,27.63
2018-02-21T23:26:30.515Z,26.77
2018-02-21T23:28:58.865Z,26.27
2018-02-21T23:31:26.455Z,27.37
2018-02-21T23:33:54.050Z,26.53
2018-02-21T23:36:22.416Z,27.00
2018-02-21T23:38:50.768Z,27.20
2018-02-21T23:41:19.088Z,27.73
2018-02-21T23:43:47.435Z,24.63
2018-02-21T23:46:15.045Z,26.83
2018-02-21T23:48:43.404Z,27.20
2018-02-21T23:51:10.990Z,27.33
2018-02-21T23:53:39.370Z,25.80
2018-02-21T23:56:07.753Z,28.90
2018-02-21T23:58:35.350Z,25.67
